Betania, Argentina
Current Conditions -  °F | °C
As of 5:00 PM on Friday 31 Oct 2014 (Local Time) from SASJ Reporting Station
Few Clouds Few Clouds  
Wind Chill: 91°   Ceiling: Unl
Heat Index: 92°   Visibility: 6mi
Dew Point: 63°   Wind: 10mph
Humidity: 38%   Direction: 50°NE
Pressure: 29.71"   Gusts: NA
Location:  24.68°S, 65.12°W
Report Text: SASJ 312000Z 05009KT 9999 FEW030 FEW040CB33/17 Q1006
Loading
Personal Weather Stations






























Interactive Weather Map
Tropical Storm Tracking
New forecast layout! Learn more

10-Day Weather Forecast

Advertisements
Track Severe Weather on mobile